Lugerville, Wisconsin
Current Conditions -  °F | °C
As of 7:15 AM on Friday 28 Nov 2014 (Local Time) from KPBH Reporting Station
Light Snow Light Snow  
Wind Chill: -2°   Ceiling: 3500
Heat Index:   Visibility: 10mi
Dew Point:   Wind: 5mph
Humidity: 83%   Direction: 120°ESE
Pressure: 30.06"   Gusts: NA
Location:  45.7439°N, 90.2959°W
Report Text: KPBH 281315Z AUTO 12004KT 10SM -SN OVC035 M14/M16 A3006 RMK AO2 T11381161
Loading
Personal Weather Stations






























Interactive Weather Map New forecast layout! Learn more

10-Day Weather Forecast

Advertisements
Track Severe Weather on mobile